This is the latest recevied weather packets stored in our database for station/object K1ABC. If no packets are shown the sender has not sent any weather packets the latest 10 day(s).
| Time | Temp. | Humidity | Pressure | Rain* | Wind** | Luminosity | Snow |
|---|---|---|---|---|---|---|---|
| 1777703657 | 7.22° C | 71% | 1011.5 hPa | 0 mm | - | - | - |
| 1777703533 | 7.22° C | 70% | 1011.5 hPa | 0 mm | - | - | - |
| 1777702146 | 8.33° C | 66% | 1011.5 hPa | 0 mm | - | - | - |
| 1777701655 | 8.33° C | 65% | 1011.6 hPa | 0 mm | - | - | - |
| 1777701287 | 8.33° C | 65% | 1011.7 hPa | 0 mm | - | - | - |
| 1777700792 | 8.33° C | 65% | 1011.7 hPa | 0 mm | - | - | - |
| 1777699607 | 8.89° C | 62% | 1011.7 hPa | 0 mm | - | - | - |
| 1777698793 | 9.44° C | 59% | 1011.8 hPa | 0 mm | - | - | - |
| 1777698670 | 9.44° C | 59% | 1011.8 hPa | 0 mm | - | - | - |
| 1777697658 | 9.44° C | 57% | 1011.7 hPa | 0 mm | - | - | - |
| 1777697415 | 9.44° C | 57% | 1011.7 hPa | 0 mm | - | - | - |
| 1777697294 | 9.44° C | 57% | 1011.7 hPa | 0 mm | - | - | - |
| 1777696517 | 8.89° C | 56% | 1011.7 hPa | 0 mm | - | - | - |
| 1777696273 | 8.89° C | 56% | 1011.7 hPa | 0 mm | - | - | - |
| 1777695372 | 8.89° C | 52% | 1011.5 hPa | 0 mm | - | - | - |
| 1777691900 | 8.33° C | 47% | 1011.2 hPa | 0 mm | - | - | - |
| 1777691528 | 8.33° C | 48% | 1011.3 hPa | 0 mm | - | - | - |
| 1777690778 | 8.89° C | 48% | 1011.2 hPa | 0 mm | - | - | - |
| 1777689914 | 8.89° C | 48% | 1011.2 hPa | 0 mm | - | - | - |
| 1777689671 | 8.89° C | 48% | 1011.2 hPa | 0 mm | - | - | - |
| 1777689551 | 8.89° C | 48% | 1011.2 hPa | 0 mm | - | - | - |
| 1777688464 | 9.44° C | 47% | 1011.1 hPa | 0 mm | - | - | - |
| 1777687760 | 9.44° C | 46% | 1011.1 hPa | 0 mm | - | - | - |
| 1777687506 | 9.44° C | 45% | 1011.1 hPa | 0 mm | - | - | - |
| 1777687255 | 9.44° C | 46% | 1011.1 hPa | 0 mm | - | - | - |
* Rain latest hour (hover to see other rain measurements)
** Current wind speed in m/s (hover to see current wind gust speed)